Date,TemperatureHighF,TemperatureAvgF,TemperatureLowF,DewpointHighF,DewpointAvgF,DewpointLowF,HumidityHigh,HumidityAvg,HumidityLow,PressureMaxIn,PressureMinIn,WindSpeedMaxMPH,WindSpeedAvgMPH,GustSpeedMaxMPH,PrecipitationSumIn
2013-1-1,40.5,38.8,36.9,40.2,38.5,36.6,99,99,99,30.36,30.23,0,0,2,0.00
2013-1-2,41.4,35.0,30.6,41.1,34.8,30.3,99,99,99,30.22,30.07,0,0,2,0.00
2013-1-3,38.5,36.2,29.7,38.2,36.0,29.4,99,99,99,30.07,29.92,1,0,5,0.07
2013-1-4,41.4,39.9,35.4,41.1,39.6,35.2,99,99,99,30.15,29.98,0,0,2,0.02
2013-1-5,46.2,41.1,36.5,46.0,40.8,36.2,99,99,99,30.00,29.85,5,1,14,0.12
2013-1-6,44.4,41.6,36.7,44.2,41.3,36.4,99,99,99,29.91,29.74,4,0,8,0.11
2013-1-7,42.4,38.7,34.2,42.2,38.5,33.9,99,99,99,29.93,29.57,2,0,4,0.19
2013-1-8,39.9,36.8,34.0,39.7,36.6,33.7,99,99,99,29.96,29.61,2,0,8,0.17
2013-1-9,47.3,42.3,37.4,43.6,39.9,37.1,100,91,81,29.72,29.39,9,2,21,0.08
2013-1-10,42.4,36.0,29.7,41.0,34.8,29.4,100,96,86,30.02,29.76,2,0,6,0.01
2013-1-11,37.9,31.5,25.5,36.7,30.3,25.3,100,96,86,30.18,30.03,1,0,4,0.00
2013-1-12,38.5,31.9,26.1,37.7,31.3,25.8,100,98,91,30.29,30.17,2,0,5,0.00
2013-1-13,37.9,32.0,25.7,37.7,31.8,25.5,99,99,99,30.32,30.27,0,0,3,0.01
2013-1-14,37.8,34.5,32.0,37.5,34.2,31.8,99,99,99,30.41,30.29,0,0,2,0.00
2013-1-15,41.9,37.1,33.8,41.6,36.9,33.5,99,99,99,30.56,30.43,2,0,6,0.01
2013-1-16,40.6,39.0,36.0,40.4,38.7,35.7,99,99,99,30.53,30.40,0,0,4,0.00
2013-1-17,42.6,37.8,36.5,42.4,37.5,36.2,99,99,97,30.38,30.13,2,0,5,0.00
2013-1-18,41.4,38.2,34.9,41.1,38.0,34.6,99,99,99,30.19,30.11,0,0,3,0.00
2013-1-19,41.0,37.3,36.0,40.7,37.1,35.7,99,99,99,30.25,30.19,1,0,4,0.00
2013-1-20,37.4,34.7,29.8,37.1,34.4,29.6,99,99,99,30.27,30.15,1,0,4,0.00
2013-1-21,35.2,32.5,26.2,35.0,32.3,26.0,99,99,99,30.14,29.97,1,0,4,0.00
2013-1-22,47.5,35.9,31.6,47.2,35.7,31.4,99,99,99,29.98,29.75,1,0,4,0.00
2013-1-23,41.9,39.7,35.1,41.6,39.5,34.8,99,99,99,29.82,29.62,2,0,8,0.40
2013-1-24,39.4,37.1,30.6,39.1,36.8,30.3,99,99,99,29.98,29.78,3,0,8,0.11
2013-1-25,47.1,42.5,37.2,46.0,42.3,37.0,99,99,99,29.84,29.68,1,0,3,0.05
2013-1-26,43.0,40.7,37.8,42.7,40.4,37.5,99,99,99,29.83,29.65,1,0,5,0.13
2013-1-27,43.7,40.1,36.1,43.4,39.8,35.9,99,99,99,29.82,29.75,3,0,8,0.00
2013-1-28,43.7,41.9,39.0,43.7,41.6,38.8,100,99,97,29.85,29.78,4,1,11,0.00
2013-1-29,46.8,43.4,35.8,46.8,43.1,35.5,100,99,97,30.12,29.88,1,0,6,0.01
2013-1-30,43.2,42.4,41.0,42.9,42.1,40.7,99,99,99,30.20,30.12,1,0,4,0.02
2013-1-31,50.9,43.8,40.6,50.6,43.6,40.4,99,99,99,30.18,30.07,2,0,5,0.05
2013-2-1,45.5,42.7,40.6,45.2,42.4,40.4,99,99,99,30.28,30.17,0,0,1,0.00
2013-2-2,43.9,42.3,40.8,43.6,42.0,40.6,99,99,99,30.27,30.07,0,0,2,0.00
2013-2-3,44.6,42.4,41.0,44.3,42.1,40.7,99,99,99,30.11,29.97,1,0,6,0.00
2013-2-4,47.5,44.6,41.2,47.2,44.3,40.9,99,99,99,29.96,29.63,2,0,4,0.00
2013-2-5,47.7,42.6,41.2,47.4,42.4,40.9,99,99,99,29.58,29.49,3,1,12,0.74
2013-2-6,45.0,43.0,39.7,44.7,42.8,39.5,99,99,99,29.75,29.54,4,1,10,0.08
2013-2-7,42.4,39.8,37.6,42.2,39.6,37.3,99,99,99,29.67,29.47,2,1,8,0.13
2013-2-9,45.1,40.6,34.3,44.9,40.3,34.1,99,99,99,30.17,30.08,1,0,3,0.01
2013-2-10,46.0,43.0,40.3,45.8,42.8,40.0,99,99,99,30.19,30.12,0,0,3,0.01
2013-2-11,47.7,43.4,39.7,47.4,43.1,39.5,100,99,96,30.14,30.11,3,0,6,0.00
2013-2-12,51.3,44.8,41.2,50.1,44.3,40.9,100,98,92,30.15,30.00,3,1,8,0.01
2013-2-13,49.8,45.6,42.6,45.3,42.6,41.0,97,90,78,30.27,30.06,4,2,8,0.00
2013-2-14,45.1,42.7,40.6,44.9,42.4,40.4,99,99,93,30.41,30.27,0,0,2,0.17
2013-2-15,45.0,43.8,42.4,44.7,43.5,42.2,99,99,99,30.40,30.01,0,0,2,0.00
2013-2-16,51.8,46.1,38.7,48.2,44.1,38.4,100,93,81,29.99,29.87,5,1,19,0.04
2013-2-17,47.3,42.3,31.1,44.4,39.9,30.9,100,92,83,30.05,29.97,2,0,4,0.01
2013-2-18,44.1,40.8,33.3,43.3,40.5,33.0,99,99,99,29.90,29.56,3,1,11,0.17
2013-2-19,46.4,37.9,33.6,46.1,37.6,33.4,99,99,99,29.80,29.58,1,0,4,0.09
2013-2-20,44.8,39.7,32.7,44.5,39.4,32.5,99,99,99,29.82,29.77,2,0,4,0.01
2013-2-21,51.3,45.2,35.6,47.1,42.1,35.3,100,89,81,29.79,29.70,5,2,16,0.00
2013-2-22,50.4,44.2,40.1,50.0,41.0,37.0,100,89,75,29.74,29.31,11,3,30,0.31
2013-2-23,49.5,44.9,37.2,43.2,40.4,36.3,100,84,76,30.11,29.59,6,1,11,0.00
2013-2-24,49.6,42.7,39.0,47.9,42.5,38.8,100,99,95,30.12,29.57,4,0,8,0.66
2013-2-25,54.7,44.1,36.3,42.9,37.6,34.1,99,79,52,30.04,29.44,7,1,15,0.04
2013-2-26,45.5,41.1,35.2,41.4,39.4,34.2,100,94,83,30.07,29.89,8,1,11,0.17
2013-2-27,45.7,42.6,34.0,43.8,41.4,33.7,100,95,89,30.10,29.96,4,0,7,0.01
2013-2-28,42.4,41.2,33.6,42.2,40.9,33.4,99,99,99,30.08,29.95,3,0,5,0.39
2013-3-1,51.6,49.2,41.9,51.4,48.9,41.6,99,99,99,30.02,29.94,4,1,9,0.67
2013-3-2,49.1,43.2,38.1,48.3,42.9,37.9,100,99,93,30.01,29.86,6,1,12,0.15
2013-3-3,50.2,42.9,32.7,44.9,40.0,32.5,100,90,78,30.13,30.01,4,0,7,0.00
2013-3-4,47.1,39.8,29.1,43.9,38.5,28.9,100,95,88,30.14,29.81,2,0,4,0.00
2013-3-5,45.0,40.6,31.6,43.7,40.1,31.4,100,98,94,29.80,29.64,3,0,5,0.04
2013-3-6,39.0,38.8,38.7,38.8,38.6,38.4,99,99,99,29.60,29.49,1,0,2,0.05
2013-3-15,55.2,46.8,41.9,54.9,46.5,41.6,99,99,99,29.97,29.88,2,0,6,0.01
2013-3-16,49.6,43.4,39.0,47.2,42.2,37.4,100,96,80,29.87,29.63,6,1,10,0.07
2013-3-17,51.3,42.6,37.0,38.3,36.7,34.9,96,81,60,29.92,29.75,8,2,14,0.04
2013-3-18,50.4,42.1,35.2,42.6,38.7,35.0,100,89,72,30.03,29.79,4,1,7,0.01
2013-3-19,47.3,39.4,30.7,42.0,37.2,30.5,100,92,72,30.01,29.28,3,1,7,0.09
2013-3-20,53.1,43.9,38.8,49.7,41.8,32.9,100,93,75,29.71,28.98,8,2,16,0.66
2013-3-21,50.0,38.9,32.2,39.5,34.5,31.9,100,85,66,30.01,29.73,6,2,14,0.01
2013-3-22,47.3,39.0,28.6,39.3,34.5,28.3,99,85,70,30.16,30.02,2,0,4,0.09
2013-3-23,41.9,36.2,32.4,40.8,35.9,32.1,100,99,96,30.19,30.15,2,0,3,0.00
2013-3-24,48.7,42.1,37.9,42.5,39.8,37.7,100,92,77,30.10,29.95,2,0,5,0.00
2013-3-25,50.7,45.3,39.0,46.0,42.8,38.8,100,91,84,29.95,29.90,1,0,3,0.00
2013-3-26,55.0,48.4,41.0,50.3,44.6,40.2,100,87,79,29.83,29.79,0,0,2,0.00
2013-3-27,59.2,51.4,36.7,52.3,47.2,36.4,100,86,74,29.80,29.75,2,0,4,0.00
2013-3-28,56.5,50.9,44.4,52.0,48.5,44.2,100,92,81,29.91,29.81,2,0,4,0.00
2013-3-29,56.8,51.1,37.0,52.8,48.4,36.8,100,91,81,30.09,29.95,2,0,4,0.00
2013-3-30,52.2,45.1,36.3,50.2,44.4,36.1,100,97,90,30.12,30.09,1,0,2,0.00
2013-3-31,61.3,54.0,36.3,51.1,48.0,36.1,100,81,66,29.93,29.73,2,0,3,0.00
2013-4-1,68.5,50.1,38.7,54.4,47.2,38.4,100,90,77,29.87,29.75,11,1,21,0.00
2013-4-2,61.0,51.7,49.5,49.7,46.5,44.5,93,83,71,29.99,29.91,8,1,15,0.00
2013-4-3,57.0,52.8,45.5,52.6,49.0,44.7,97,87,79,30.01,29.81,2,0,4,0.00
2013-4-4,50.7,49.0,44.8,50.4,48.7,44.5,100,99,99,29.78,29.33,1,0,2,0.30
2013-4-5,56.3,51.7,48.2,53.7,50.0,46.8,100,94,80,29.57,29.35,8,0,14,0.02
2013-4-6,59.0,49.6,43.2,48.6,44.6,41.6,100,84,56,29.64,29.34,7,1,14,0.09
2013-4-7,56.8,51.5,39.4,49.3,45.6,39.1,100,81,66,29.64,29.43,2,0,5,0.01
2013-4-8,42.4,38.3,36.5,41.6,38.0,36.2,99,99,94,29.86,29.68,1,0,2,0.00
2013-4-9,48.7,46.5,43.5,46.9,45.4,41.1,100,96,78,30.11,29.91,4,0,11,0.08
2013-4-10,57.7,51.9,45.9,52.9,48.8,45.2,99,89,81,29.94,29.59,4,1,9,0.50
2013-4-11,55.9,50.6,42.8,45.6,41.5,38.7,97,71,63,30.10,29.98,3,0,6,0.00
2013-4-12,48.2,44.4,41.0,44.9,40.6,36.8,97,87,75,29.95,29.40,6,1,15,0.05
2013-4-13,45.9,42.6,37.6,41.5,39.3,34.3,94,88,84,29.62,29.52,4,1,11,0.00
2013-4-14,54.9,49.2,34.3,46.2,42.4,34.0,100,78,65,29.81,29.71,3,0,6,0.00
2013-4-15,61.0,52.3,37.6,50.2,41.9,36.6,100,70,44,29.94,29.73,2,0,8,0.00
2013-4-16,60.6,53.6,34.0,45.6,40.6,32.7,97,64,43,30.16,29.99,2,0,4,0.00
2013-4-17,59.4,52.1,45.7,49.7,44.3,39.2,86,75,55,30.22,30.15,7,2,16,0.00
2013-4-18,50.7,48.6,43.2,50.5,47.8,41.9,100,97,88,30.21,29.96,4,0,8,0.15
2013-4-19,57.4,52.1,47.1,55.6,51.5,46.9,100,98,90,29.94,29.84,2,0,5,0.38
2013-4-20,52.5,49.2,46.8,49.9,48.1,46.5,100,96,87,30.03,29.94,3,0,6,0.00
2013-4-21,57.7,52.5,43.3,48.1,44.7,41.0,92,75,63,30.16,30.01,4,0,8,0.00
2013-4-22,64.0,51.9,32.5,44.9,39.9,32.3,100,66,36,30.38,30.22,2,0,7,0.00
2013-4-23,63.9,48.9,38.3,46.8,40.3,35.8,94,73,49,30.24,30.09,2,0,4,0.00
2013-4-24,66.0,61.4,37.4,52.1,46.6,36.6,100,59,47,30.14,29.88,2,0,4,0.00
2013-4-25,64.0,58.4,42.3,53.3,50.5,40.7,96,76,63,29.89,29.85,2,0,3,0.00
2013-4-26,65.7,58.0,48.6,56.0,47.3,44.9,93,68,52,29.99,29.91,8,2,17,0.00
2013-4-27,61.3,56.2,51.8,50.9,48.0,41.7,86,74,65,29.94,29.83,10,3,19,0.02
2013-4-28,57.7,50.9,43.3,44.0,40.6,36.3,92,69,50,29.98,29.67,11,3,22,0.05
2013-4-29,55.0,48.7,40.6,44.5,40.9,38.1,96,75,62,29.94,29.70,4,0,8,0.09
2013-4-30,57.9,50.5,31.8,42.0,37.8,31.6,100,64,48,30.19,29.95,2,0,4,0.01
2013-5-1,60.6,53.2,32.2,49.3,45.0,30.9,100,74,61,30.40,30.25,3,0,8,0.00
2013-5-2,63.7,56.9,38.7,51.3,46.8,38.4,100,70,55,30.37,30.22,2,0,4,0.00
2013-5-3,70.3,63.4,41.4,55.4,51.7,41.1,100,67,53,30.27,30.07,3,0,4,0.00
2013-5-4,73.9,63.4,42.1,55.6,51.8,41.5,100,68,47,30.11,29.86,2,0,4,0.00
2013-5-5,81.9,70.9,46.6,60.3,55.3,45.5,100,59,39,29.85,29.58,2,0,3,0.00
2013-5-6,81.3,70.5,50.0,60.4,56.1,47.8,94,63,40,29.66,29.55,2,0,3,0.00
2013-5-7,73.6,65.6,49.6,61.0,57.3,48.3,96,76,59,29.72,29.60,2,0,5,0.00
2013-5-8,68.9,62.9,52.3,60.2,56.9,51.5,100,81,72,29.90,29.74,2,0,6,0.00
2013-5-9,69.6,63.2,48.9,61.2,58.0,48.7,100,84,69,30.01,29.89,2,0,4,0.00
2013-5-10,69.1,63.3,48.2,62.0,58.2,47.9,100,84,70,29.99,29.89,2,0,4,0.00
2013-5-11,65.7,59.6,54.5,60.0,57.5,54.2,100,93,80,29.93,29.76,8,0,17,0.21
2013-5-12,67.8,61.2,56.8,62.1,57.6,53.2,99,88,76,29.80,29.73,8,1,15,0.45
2013-5-13,59.9,55.4,50.5,58.1,52.9,46.8,100,92,74,29.85,29.63,8,1,16,0.51
2013-5-14,61.9,56.3,47.7,53.9,49.5,46.2,97,78,65,29.97,29.90,6,1,12,0.00
2013-5-15,60.1,55.4,48.2,54.9,52.6,47.4,100,90,81,29.90,29.78,2,0,4,0.06
2013-5-16,66.9,58.8,50.4,59.3,55.3,50.1,100,89,74,29.80,29.68,2,0,4,0.01
2013-5-17,67.3,59.7,54.7,58.7,54.6,49.7,100,84,66,29.76,29.69,7,1,14,0.06
2013-5-18,66.2,59.8,51.1,57.5,53.3,47.6,100,79,65,30.05,29.78,7,1,14,0.17
2013-5-19,58.6,54.8,50.7,51.9,50.3,47.6,95,85,77,30.19,30.09,2,0,4,0.00
2013-5-20,62.6,55.8,46.2,56.4,52.5,45.6,100,89,79,30.13,29.79,2,0,4,0.08
2013-5-21,52.2,48.9,45.7,51.3,48.5,45.4,100,99,95,29.71,29.57,2,0,4,0.41
2013-5-22,65.5,60.0,45.3,54.8,51.5,45.1,100,74,63,29.67,29.59,2,0,4,0.00
2013-5-23,63.5,56.4,47.8,56.2,51.8,47.6,100,85,73,29.77,29.64,2,0,4,0.54
2013-5-24,65.3,58.6,44.2,57.1,52.6,44.0,100,81,64,29.78,29.75,7,1,14,0.00
2013-5-25,66.4,58.6,49.8,57.9,52.8,45.4,89,81,71,29.79,29.76,5,0,12,0.02
2013-5-26,60.1,55.7,46.4,56.2,53.7,45.9,100,93,87,29.77,29.74,1,0,4,0.00
2013-5-27,57.6,56.0,53.1,57.4,55.6,52.8,100,98,96,29.68,29.44,4,0,11,0.04
2013-5-28,57.4,54.8,51.4,57.1,54.5,51.2,99,99,99,29.59,29.47,4,0,6,0.15
2013-5-29,57.9,54.3,49.8,56.9,52.4,48.3,100,93,82,29.66,29.48,6,1,15,0.20
2013-5-30,58.1,55.5,50.2,57.9,53.3,46.1,100,93,80,29.97,29.69,4,0,9,0.14
2013-5-31,57.6,54.9,47.3,54.9,53.0,46.9,100,94,90,30.13,30.00,3,0,5,0.01
2013-6-1,58.5,56.2,52.3,57.2,55.5,50.3,100,97,89,30.01,29.97,1,0,2,0.05
2013-6-2,71.4,64.6,48.6,59.1,55.8,48.0,100,74,59,29.91,29.80,2,0,4,0.00
2013-6-3,76.8,65.3,46.0,61.4,55.9,45.8,100,72,56,29.92,29.85,2,0,4,0.00
2013-6-4,74.7,67.3,48.7,63.5,58.5,48.5,100,74,60,29.93,29.79,4,0,8,0.00
2013-6-5,69.3,64.2,58.3,62.3,60.1,53.9,100,87,63,29.90,29.78,2,0,3,0.00
2013-6-6,73.4,66.7,47.7,61.0,57.2,46.9,100,72,60,29.85,29.75,5,0,11,0.00
2013-6-7,72.5,65.7,57.6,57.5,54.4,48.0,81,67,55,29.80,29.73,11,5,22,0.00
2013-6-8,69.1,62.6,55.8,57.9,54.2,49.0,84,74,65,29.94,29.88,5,1,14,0.00
2013-6-9,70.0,64.0,54.7,55.5,51.7,48.1,88,65,50,29.87,29.79,7,1,13,0.00
2013-6-10,71.4,65.0,45.9,58.6,52.9,44.5,97,65,53,29.82,29.61,8,1,17,0.00
2013-6-11,68.0,61.1,52.2,57.7,51.1,46.6,88,70,60,29.82,29.64,8,2,18,0.05
2013-6-12,68.7,59.7,52.7,60.0,54.6,47.7,94,84,69,29.91,29.82,3,0,6,0.09
2013-6-13,62.8,58.2,51.8,56.5,53.6,49.8,94,85,77,29.95,29.91,2,0,7,0.00
2013-6-14,68.5,60.7,52.2,59.5,54.4,50.2,96,80,70,29.95,29.85,7,2,13,0.00
2013-6-15,73.4,61.1,46.8,60.5,55.2,46.5,100,83,59,29.84,29.70,1,0,2,0.00
2013-6-16,79.3,66.6,57.0,64.0,57.6,52.8,90,74,51,29.81,29.72,7,2,16,0.00
2013-6-17,71.4,64.3,55.6,65.6,60.2,52.3,95,87,70,29.80,29.66,6,1,12,0.28
2013-6-18,72.7,65.0,53.1,61.7,57.6,52.8,100,78,58,29.72,29.66,5,1,10,0.18
2013-6-19,73.4,62.1,55.8,60.5,54.1,52.3,90,75,58,29.75,29.65,8,3,20,0.00
2013-6-20,59.9,58.3,56.3,57.8,55.5,52.8,97,91,80,29.83,29.65,4,1,12,0.06
2013-6-21,71.4,63.8,56.3,63.1,58.5,53.5,93,83,74,29.91,29.83,4,0,11,0.00
2013-6-22,68.4,64.5,59.9,62.6,59.7,55.5,93,85,78,29.87,29.66,2,0,4,0.00
2013-6-23,66.4,62.6,50.7,64.1,61.3,50.4,100,96,90,29.65,29.37,1,0,3,0.08
2013-6-24,68.7,63.3,59.4,62.3,58.9,56.0,100,86,71,29.42,29.28,11,2,24,0.28
2013-6-25,68.7,62.1,57.0,64.2,61.0,56.7,100,96,85,29.52,29.38,3,0,7,0.02
2013-6-26,65.5,61.2,56.1,64.5,60.5,55.8,100,98,90,29.81,29.52,3,0,8,0.04
2013-6-27,64.8,61.3,57.2,64.5,61.0,56.9,100,99,96,29.97,29.79,2,0,7,0.39
2013-6-28,66.0,62.6,56.1,65.7,62.3,55.8,99,99,99,29.97,29.83,0,0,2,0.01
2013-6-29,65.1,60.8,59.4,64.9,60.6,59.1,99,99,99,29.86,29.83,1,0,3,0.00
2013-6-30,83.5,71.7,60.1,72.6,66.8,59.8,100,86,62,29.78,29.62,1,0,3,0.00
2013-7-1,89.1,78.8,65.3,72.3,62.9,58.7,97,59,48,29.76,29.63,12,2,21,0.00
2013-7-2,87.1,73.5,63.7,68.4,61.7,54.6,87,68,41,29.85,29.75,8,1,16,0.00
2013-7-3,79.2,66.7,53.6,64.8,58.1,51.3,96,75,56,29.92,29.77,3,0,8,0.00
2013-7-4,76.5,65.6,53.2,62.3,57.0,52.0,97,75,59,29.85,29.78,2,0,4,0.00
2013-7-5,77.7,64.6,53.1,63.1,56.1,50.5,93,75,55,29.81,29.69,2,0,5,0.00
2013-7-6,82.9,63.8,51.8,65.6,57.5,51.0,100,81,53,29.79,29.62,4,0,6,0.00
2013-7-7,80.8,66.9,56.1,67.3,60.1,55.0,97,80,62,29.72,29.63,2,0,4,0.00
2013-7-8,85.3,65.0,54.7,69.3,59.6,53.9,100,84,57,29.84,29.70,2,0,4,0.00
2013-7-9,79.5,67.4,56.3,67.8,62.1,56.0,100,84,62,29.88,29.74,2,0,5,0.00
2013-7-10,77.4,65.1,54.0,62.8,57.2,52.3,100,77,50,29.78,29.64,10,1,21,0.00
2013-7-11,74.8,64.4,56.5,56.6,53.2,50.7,82,68,49,29.80,29.69,6,1,11,0.00
2013-7-12,76.1,64.6,51.6,58.6,54.3,48.7,91,71,52,29.83,29.76,4,0,8,0.00
2013-7-13,76.6,64.0,50.7,60.1,55.3,49.5,97,75,56,29.97,29.84,1,0,3,0.00
2013-7-14,77.4,64.0,51.1,60.8,55.7,50.5,100,76,54,29.89,29.79,2,0,3,0.00
2013-7-15,81.9,66.5,52.5,62.4,55.5,50.0,94,70,42,29.87,29.70,0,0,2,0.00
2013-7-16,81.7,74.1,52.0,65.1,61.7,49.4,92,66,49,29.72,29.59,2,0,3,0.00
2013-7-17,81.1,72.9,63.1,67.3,61.2,55.3,85,67,50,29.91,29.60,9,3,22,0.00
2013-7-18,82.4,70.4,60.8,68.5,63.2,58.1,93,79,58,29.98,29.84,7,0,12,0.00
2013-7-19,81.9,69.5,57.6,70.7,63.5,57.3,100,82,66,29.91,29.76,2,0,6,0.00
2013-7-20,80.6,68.1,57.2,67.6,61.7,56.9,100,81,60,29.80,29.68,2,0,4,0.00
2013-7-21,79.2,67.5,55.4,66.7,61.1,55.1,100,81,63,29.72,29.64,2,0,4,0.00
2013-7-22,81.9,67.6,55.2,65.6,59.4,54.1,97,77,51,29.78,29.67,2,0,5,0.00
2013-7-23,85.8,68.7,54.5,66.3,59.0,52.8,95,73,47,29.83,29.71,2,0,4,0.00
2013-7-24,84.4,68.5,54.9,67.3,61.2,54.2,100,79,54,29.81,29.72,2,0,4,0.00
2013-7-25,83.1,68.2,53.8,66.3,60.2,53.0,100,77,52,29.85,29.77,4,0,5,0.00
2013-7-26,79.9,66.9,53.8,63.8,57.6,52.4,96,74,48,29.91,29.83,3,0,5,0.00
2013-7-27,80.4,66.6,51.3,63.0,56.5,49.9,97,72,45,29.90,29.74,2,0,6,0.00
2013-7-28,78.8,65.9,51.8,64.6,58.2,50.9,97,78,56,29.76,29.63,2,0,4,0.00
2013-7-29,82.2,69.4,54.9,66.8,60.3,54.0,100,75,50,29.74,29.65,5,0,12,0.00
2013-7-30,79.5,66.2,55.9,67.8,61.3,54.4,97,85,62,29.86,29.68,4,0,8,0.00
2013-7-31,80.8,68.6,56.5,68.7,63.6,56.2,100,85,62,29.84,29.68,2,0,4,0.00
2013-8-1,78.1,69.7,63.3,69.6,64.5,58.1,100,84,68,29.75,29.67,7,0,14,0.00
2013-8-2,69.8,63.8,61.0,64.4,59.8,56.5,100,87,79,29.86,29.72,8,1,18,0.00
2013-8-3,73.4,65.9,60.1,65.5,62.3,58.2,100,89,72,29.89,29.79,2,0,4,0.00
2013-8-4,79.3,66.2,54.7,66.6,61.1,54.4,100,85,63,29.83,29.67,2,0,4,0.00
2013-8-5,82.2,66.6,53.1,66.4,59.3,52.8,100,79,49,29.75,29.65,2,0,4,0.00
2013-8-6,84.2,69.4,55.6,68.1,60.9,54.5,100,76,50,29.73,29.64,2,0,4,0.00
2013-8-7,87.3,73.0,57.6,66.5,61.3,56.1,97,69,44,29.73,29.64,6,0,14,0.00
2013-8-8,84.7,73.8,64.0,70.7,64.5,59.0,86,73,61,29.74,29.64,4,0,11,0.00
2013-8-9,65.3,61.4,58.3,61.2,58.8,57.2,96,91,86,29.68,29.67,1,0,2,0.00
2013-8-13,77.2,68.2,61.0,67.7,63.1,58.9,100,84,72,29.82,29.66,3,0,8,0.00
2013-8-14,72.7,64.3,57.2,68.2,62.8,56.9,100,95,81,29.66,29.61,4,0,8,0.01
2013-8-15,73.6,68.2,63.1,67.5,64.2,61.2,97,87,75,29.69,29.62,4,1,9,0.00
2013-8-16,72.3,66.1,62.8,68.2,64.2,60.4,100,94,81,29.72,29.67,1,0,3,0.00
2013-8-17,77.5,68.3,63.3,66.7,62.4,57.7,99,83,59,29.75,29.69,8,2,16,0.00
2013-8-18,75.6,67.6,63.5,63.4,59.1,56.9,84,75,58,29.82,29.74,8,2,14,0.00
2013-8-19,76.8,70.0,62.2,64.7,60.8,54.8,82,73,61,29.84,29.75,8,1,14,0.00
2013-8-20,76.5,66.0,56.3,61.5,56.8,51.4,89,73,50,29.92,29.81,3,0,5,0.00
2013-8-21,80.2,64.7,50.4,62.8,55.8,49.7,100,75,45,29.85,29.67,2,0,4,0.00
2013-8-22,80.8,67.9,52.5,66.7,60.2,51.9,100,78,57,29.69,29.49,2,0,6,0.00
2013-8-23,77.4,68.0,60.6,66.1,60.8,57.1,90,78,60,29.56,29.49,9,2,17,0.00
2013-8-24,77.2,66.0,58.6,64.1,58.1,52.7,95,77,56,29.62,29.55,7,1,14,0.00
2013-8-25,75.2,65.2,56.3,63.1,57.4,52.5,90,77,62,29.67,29.54,7,1,13,0.00
2013-8-26,73.4,64.0,58.3,61.3,55.8,48.9,100,75,63,29.60,29.52,6,1,14,0.01
2013-8-27,70.3,62.0,57.0,66.4,60.7,56.8,100,96,80,29.62,29.54,5,0,11,0.15
2013-8-28,67.1,63.7,59.4,66.8,63.4,59.1,99,99,99,29.61,29.54,3,0,4,0.69
2013-8-29,68.9,63.5,60.8,68.6,63.2,60.5,99,99,99,29.62,29.52,4,0,12,1.05
2013-8-30,65.7,61.3,57.0,65.4,61.0,56.8,99,99,99,29.87,29.61,4,0,10,0.01
2013-8-31,70.9,61.6,54.1,66.6,60.3,53.9,100,96,84,29.84,29.56,1,0,3,0.00
2013-9-1,73.2,64.2,54.5,68.1,60.7,54.2,100,89,69,29.59,29.49,8,1,23,0.00
2013-9-2,73.0,66.1,57.6,67.6,62.3,57.2,100,88,72,29.64,29.55,8,0,16,0.07
2013-9-3,71.2,63.8,58.8,68.7,62.6,58.1,100,96,80,29.77,29.64,5,0,13,0.04
2013-9-4,72.9,63.1,53.8,67.1,61.3,53.5,100,94,80,29.80,29.73,2,0,4,0.00
2013-9-5,69.6,63.7,53.8,68.8,62.6,53.5,100,96,85,29.78,29.64,1,0,4,0.01
2013-9-6,73.6,63.2,54.1,67.1,61.4,53.9,100,94,77,29.79,29.64,2,0,4,0.00
2013-9-7,71.8,64.1,59.4,69.5,63.3,59.1,100,97,88,29.83,29.74,2,0,4,0.00
2013-9-8,74.1,64.2,55.8,67.7,61.7,55.5,100,92,77,29.82,29.72,1,0,3,0.00
2013-9-9,74.5,64.0,56.1,68.4,61.5,55.9,100,92,77,29.80,29.70,1,0,3,0.00
2013-9-10,64.4,53.7,50.4,62.8,53.5,50.1,100,99,93,29.76,29.73,0,0,2,0.00
2013-9-11,81.0,66.2,54.9,67.8,61.8,54.6,100,87,59,29.69,29.60,0,0,1,0.00
2013-9-12,79.9,67.8,57.0,69.4,63.5,56.7,99,87,63,29.69,29.57,0,0,2,0.00
2013-9-13,73.4,64.9,57.7,69.1,63.5,57.5,100,95,84,29.65,29.53,0,0,1,0.00
2013-9-14,67.1,61.6,56.3,66.2,61.2,56.0,100,99,96,29.59,29.46,0,0,1,0.00
2013-9-15,66.4,62.9,54.0,66.1,62.6,53.7,99,99,99,29.46,29.38,7,1,18,0.44
2013-9-16,64.0,60.8,57.7,64.1,60.4,56.6,100,98,91,29.62,29.42,8,1,17,0.34
2013-9-17,68.0,60.5,55.6,59.9,57.2,54.9,100,89,73,29.62,29.54,7,1,14,0.00
2013-9-18,67.1,60.6,54.0,61.3,57.4,53.7,100,90,80,29.75,29.62,4,0,9,0.00
2013-9-19,71.8,61.9,52.7,61.8,57.0,52.4,100,85,64,29.74,29.41,4,0,11,0.00
2013-9-20,63.9,59.0,55.9,60.5,57.3,52.9,100,94,68,29.42,29.28,5,0,11,0.90
2013-9-21,68.0,58.7,50.5,63.9,56.7,50.3,100,93,75,29.39,29.30,6,0,11,0.01
2013-9-22,69.1,57.8,53.1,61.9,54.6,52.4,100,90,67,29.33,29.08,8,1,14,0.21
2013-9-23,66.2,56.2,50.7,54.8,51.4,48.8,100,85,61,29.63,29.30,8,1,17,0.02
2013-9-24,61.3,53.6,49.1,57.2,51.5,48.8,100,93,81,29.61,29.55,6,0,12,0.22
2013-9-25,63.7,51.8,42.3,55.8,49.7,42.0,100,93,74,29.73,29.60,2,0,4,0.01
2013-9-26,45.1,43.3,41.9,44.9,43.0,41.6,99,99,99,29.76,29.72,2,0,3,0.00
2013-9-28,56.7,52.1,50.0,56.4,51.8,49.7,100,99,99,29.42,28.84,8,1,22,0.87
2013-9-29,57.2,51.9,48.6,56.9,51.6,48.3,99,99,99,29.05,28.69,11,1,21,0.85
2013-9-30,58.1,50.3,44.2,57.8,49.9,44.0,99,99,93,29.49,28.81,4,1,8,0.57
2013-10-1,51.8,47.6,41.9,51.5,47.3,41.6,99,99,99,29.75,29.48,2,0,3,0.31
2013-10-2,55.0,49.6,46.0,54.8,49.3,45.8,99,99,99,29.91,29.71,2,0,4,0.06
2013-10-3,55.2,47.7,39.4,54.1,47.1,39.1,100,98,93,30.15,29.92,0,0,2,0.00
2013-10-4,54.5,51.8,40.3,54.2,51.6,40.0,99,99,99,30.16,30.03,1,0,3,0.00
2013-10-5,60.3,54.3,50.9,60.1,54.0,50.6,100,99,96,30.04,29.85,3,0,6,0.00
2013-10-6,66.0,55.8,48.7,62.2,54.3,48.5,100,95,75,29.85,29.41,7,0,17,0.06
2013-10-7,60.6,55.7,50.4,55.6,52.7,50.1,100,90,78,29.66,29.40,8,1,15,0.17
2013-10-8,60.8,50.7,41.7,53.2,48.1,41.5,100,91,73,29.82,29.65,2,0,7,0.01
2013-10-9,60.1,49.2,40.3,56.5,48.1,40.0,100,96,86,29.85,29.64,4,0,9,0.00
2013-10-10,59.4,50.7,42.6,54.1,49.0,42.4,100,94,79,29.78,29.62,2,0,4,0.05
2013-10-11,53.4,47.2,39.4,51.1,46.2,39.1,100,97,89,29.85,29.78,1,0,2,0.05
2013-10-12,56.1,49.0,41.7,54.7,48.4,41.5,100,98,91,29.94,29.79,0,0,1,0.06
2013-10-13,57.0,46.5,40.1,54.7,45.8,39.8,100,97,90,30.08,29.93,2,0,4,0.00
2013-10-14,56.3,46.0,37.9,53.9,45.3,37.5,100,98,91,30.15,30.07,2,0,4,0.00
2013-10-15,57.2,48.3,41.4,56.1,47.8,41.1,100,98,94,30.10,29.89,2,0,4,0.00
2013-10-16,58.3,49.7,43.0,55.5,49.0,42.7,100,98,89,29.94,29.87,2,0,3,0.00
2013-10-17,52.2,44.9,39.0,51.9,44.6,38.8,99,99,99,30.00,29.91,2,0,3,0.00
2013-10-18,50.0,43.7,37.4,49.7,43.5,37.1,99,99,99,29.97,29.86,1,0,2,0.00
2013-10-19,49.3,45.4,38.8,48.8,45.1,38.6,99,99,99,29.92,29.86,2,0,3,0.00
2013-10-20,49.5,46.2,42.1,49.2,45.9,41.8,99,99,99,29.93,29.85,2,0,4,0.00
2013-10-21,50.4,45.5,39.4,50.1,45.3,39.1,99,99,99,29.90,29.79,2,0,4,0.01
2013-10-22,51.3,42.7,37.2,51.0,42.5,36.8,99,99,99,29.85,29.73,2,0,3,0.00
2013-10-23,52.3,43.6,37.0,52.1,43.3,36.8,99,99,99,29.76,29.67,0,0,1,0.00
2013-10-24,52.3,44.0,37.9,52.1,43.7,37.7,99,99,99,29.79,29.70,0,0,0,0.01
2013-10-25,52.3,46.9,39.7,52.1,46.6,39.5,99,99,99,30.04,29.78,0,0,0,0.13
2013-10-26,52.0,49.7,47.3,51.7,49.4,47.0,99,99,99,30.07,29.84,0,0,0,0.01
2013-10-27,67.5,55.2,45.0,55.0,47.1,38.8,100,77,50,29.85,29.67,4,0,9,0.01
2013-10-28,61.5,48.6,35.8,45.1,38.4,34.7,100,70,48,29.77,29.63,2,0,4,0.05
2013-10-29,86.0,41.0,32.7,64.7,38.7,32.5,100,92,47,30.12,29.64,2,0,3,0.00
2013-10-30,51.6,44.3,35.6,50.5,43.8,35.4,100,98,92,30.18,30.11,2,0,5,0.01
2013-10-31,52.2,49.3,45.9,51.9,49.1,45.6,99,99,99,30.34,30.14,2,0,3,0.01
2013-11-1,54.5,49.9,46.2,54.2,49.7,46.0,99,99,99,30.35,29.90,2,0,5,0.73
2013-11-2,49.1,43.0,35.1,49.1,42.7,34.8,100,99,97,29.99,29.64,7,1,14,1.15
2013-11-3,51.1,38.1,31.5,47.1,36.9,31.2,100,96,82,30.22,29.99,2,0,4,0.00
2013-11-4,46.0,38.3,30.0,45.1,37.7,29.8,100,98,91,30.27,30.17,2,0,6,0.01
2013-11-5,46.6,42.2,39.7,46.3,42.0,39.5,99,99,99,30.36,30.14,2,0,4,0.01
2013-11-6,48.4,44.2,41.0,48.1,44.0,40.7,99,99,99,30.42,30.04,4,0,6,0.15
2013-11-7,51.6,47.0,43.7,51.4,46.7,43.4,99,99,99,30.03,29.68,4,0,11,0.58
2013-11-8,51.8,46.4,40.6,51.8,46.1,40.4,100,99,95,30.20,30.02,4,0,7,0.00
2013-11-9,48.0,44.8,42.4,47.8,44.5,42.2,99,99,99,30.26,30.17,2,0,2,0.05
2013-11-10,47.7,44.5,40.8,47.4,44.3,40.6,99,99,99,30.31,30.25,1,0,3,0.00
2013-11-11,47.3,44.2,42.3,47.0,43.9,42.0,99,99,99,30.29,30.06,1,0,3,0.00
2013-11-12,53.1,49.0,44.1,52.8,48.8,43.8,99,99,99,30.35,30.02,6,0,11,0.43
2013-11-13,57.7,51.5,45.1,53.6,49.2,44.9,100,92,80,30.47,30.34,9,1,17,0.01
2013-11-14,52.2,46.5,37.8,50.5,45.5,37.5,100,96,84,30.40,30.12,2,0,4,0.21
2013-11-15,47.5,43.4,37.9,47.2,42.8,37.7,100,98,89,30.13,29.39,8,1,13,0.00
2013-11-16,48.9,40.5,33.6,41.7,38.0,33.4,100,91,75,29.79,29.45,4,1,11,0.01
2013-11-17,51.4,42.6,36.9,49.6,41.2,36.1,100,95,82,29.92,29.76,8,1,13,0.13
2013-11-18,45.9,43.1,40.5,45.6,42.4,40.2,100,97,92,29.93,29.67,4,0,8,0.20
2013-11-19,44.8,38.4,27.9,40.6,28.9,16.1,100,72,37,30.25,29.68,6,1,11,0.02
2013-11-20,41.0,30.4,24.8,31.4,25.0,18.7,97,81,60,30.63,30.25,2,1,5,0.00
2013-11-21,42.4,30.8,25.2,38.5,29.8,24.9,100,96,83,30.79,30.62,2,0,3,0.00
2013-11-22,42.6,32.1,27.5,41.6,31.6,27.3,100,98,91,30.79,30.57,2,0,4,0.00
2013-11-23,44.8,35.1,29.8,44.6,34.8,29.6,100,99,96,30.58,30.32,2,0,2,0.00
2013-11-24,48.0,36.0,29.7,45.8,35.4,29.4,100,98,86,30.35,30.28,2,0,2,0.00
2013-11-25,46.8,36.3,31.5,46.5,36.1,31.2,100,99,99,30.41,30.33,2,0,2,0.00
2013-11-26,46.4,40.5,32.2,46.1,40.2,31.9,100,99,96,30.37,30.20,3,0,6,0.00
2013-11-27,48.9,42.6,37.4,48.9,42.3,37.1,100,99,97,30.21,30.07,2,0,2,0.00
2013-11-28,48.7,42.4,35.4,48.5,42.2,35.2,99,99,99,30.27,30.10,2,0,3,0.00
2013-11-29,49.3,45.7,44.4,49.0,45.5,44.2,99,99,99,30.33,30.25,2,0,4,0.02
2013-11-30,47.8,46.0,44.4,47.6,45.7,44.2,99,99,99,30.35,30.05,4,0,8,0.07
2013-12-1,53.2,46.2,35.2,51.8,44.6,35.0,100,94,75,30.05,29.75,9,2,21,0.17
2013-12-2,44.8,37.3,31.5,37.0,32.6,23.3,100,84,67,30.25,29.84,4,1,10,0.05
2013-12-3,41.5,31.1,25.7,30.6,25.3,22.2,97,80,59,30.44,30.25,2,1,4,0.00
2013-12-4,40.1,27.3,23.2,36.1,26.0,23.0,100,95,74,30.46,30.41,2,0,4,0.00
2013-12-5,33.1,29.7,24.6,32.8,29.5,24.4,99,99,99,30.41,30.30,2,0,4,0.01
2013-12-6,34.0,27.1,22.6,31.6,22.9,14.6,100,85,63,30.44,30.29,4,0,8,0.00
2013-12-7,33.6,24.8,17.2,16.4,14.0,12.1,82,64,44,30.49,30.42,3,1,5,0.00
2013-12-8,35.4,26.4,18.1,29.1,23.1,15.7,97,87,74,30.63,30.48,3,0,5,0.00
2013-12-9,34.3,30.0,23.5,32.0,28.9,22.8,100,96,88,30.63,30.53,2,0,3,0.01
2013-12-10,37.8,33.5,30.2,36.3,33.0,30.0,100,98,93,30.56,30.50,2,0,4,0.00
2013-12-11,39.2,34.4,31.8,38.9,34.1,31.6,99,99,99,30.50,30.21,3,0,4,0.00
2013-12-12,38.8,35.7,31.6,38.6,35.4,31.4,99,99,99,30.22,30.04,2,0,4,0.22
2013-12-13,42.4,39.4,36.9,42.2,39.2,36.6,99,99,99,30.49,30.18,2,0,3,0.01
2013-12-14,45.0,41.8,38.5,44.7,41.5,38.2,99,99,99,30.48,30.29,3,0,5,0.06
2013-12-15,52.0,46.5,41.9,50.4,45.2,41.6,100,95,86,30.48,30.30,8,2,15,0.01
2013-12-16,45.5,39.9,34.3,44.2,39.5,34.1,100,98,88,30.55,30.33,8,1,16,0.00
2013-12-17,51.6,41.8,35.8,51.3,41.4,35.5,100,99,92,30.33,30.11,5,1,10,0.00
2013-12-18,44.6,38.8,32.0,44.3,34.3,27.3,100,85,65,30.38,30.12,4,1,9,0.04
2013-12-19,37.8,32.7,28.2,34.1,29.6,24.1,100,89,66,30.44,30.23,2,0,4,0.00
2013-12-20,34.5,33.2,32.4,34.3,33.0,32.1,99,99,99,30.23,29.79,4,0,9,0.27
2013-12-21,39.7,36.2,33.1,39.5,35.9,32.8,99,99,99,30.23,29.96,1,0,2,0.07
2013-12-22,41.2,39.1,37.2,40.9,38.8,37.0,99,99,99,30.35,30.19,2,0,4,0.09
2013-12-23,48.4,42.9,36.0,48.2,42.6,35.7,100,99,97,30.56,30.09,6,1,11,0.05
2013-12-24,45.9,39.7,34.5,43.8,38.9,34.3,100,97,81,30.69,30.56,4,1,10,0.00
2013-12-25,42.4,39.1,35.2,42.2,38.8,35.0,99,99,99,30.63,30.43,2,0,4,0.00
2013-12-26,45.5,41.7,37.9,45.2,41.4,37.7,99,99,99,30.45,30.23,4,1,6,0.00
2013-12-27,50.7,41.9,33.6,50.0,41.6,33.4,100,99,94,30.44,30.03,6,1,17,0.09
2013-12-28,45.5,37.9,31.6,45.2,37.6,31.4,99,99,99,30.60,30.43,2,0,4,0.01
2013-12-29,43.2,40.5,34.7,42.9,40.2,34.5,99,99,99,30.55,30.38,3,0,7,0.02
2013-12-30,47.1,43.0,40.8,46.9,42.7,40.6,99,99,99,30.39,30.14,5,0,10,0.01
2013-12-31,47.1,43.6,40.8,46.9,43.4,40.6,99,99,99,30.45,30.22,2,0,3,0.02
2014-1-1,45.0,43.3,42.1,44.7,43.0,41.8,99,99,99,30.48,30.30,2,0,2,0.02
2014-1-2,46.6,42.4,33.4,46.3,42.1,33.2,99,99,99,30.30,29.88,6,0,13,0.30